createdAt,value
2022-09-15T00:03:28.522Z,3.17
2022-09-15T00:08:30.661Z,3.42
2022-09-15T00:13:34.167Z,3.58
2022-09-15T00:18:37.212Z,3.42
2022-09-15T00:23:38.929Z,3.97
2022-09-15T00:28:41.466Z,3.57
2022-09-15T00:33:45.877Z,3.90
2022-09-15T00:38:47.580Z,3.70
2022-09-15T00:43:55.557Z,3.58
2022-09-15T00:48:59.969Z,3.33
2022-09-15T00:54:05.916Z,4.38
2022-09-15T00:59:11.808Z,4.57
2022-09-15T01:04:14.870Z,4.47
2022-09-15T01:09:26.392Z,4.90
2022-09-15T01:14:28.035Z,3.88
2022-09-15T01:19:38.534Z,3.10
2022-09-15T01:24:45.725Z,3.67
2022-09-15T01:30:05.747Z,4.03
2022-09-15T01:35:20.363Z,4.10
2022-09-15T01:40:27.615Z,3.35
2022-09-15T01:45:32.755Z,4.05
2022-09-15T01:50:42.927Z,3.10
2022-09-15T01:55:52.893Z,4.07
2022-09-15T02:01:17.067Z,3.53
2022-09-15T02:06:33.013Z,3.45
2022-09-15T02:11:40.129Z,3.22
2022-09-15T02:16:46.965Z,3.28
2022-09-15T02:22:02.658Z,3.10
2022-09-15T02:27:10.179Z,3.00
2022-09-15T02:32:15.272Z,2.80
2022-09-15T02:37:21.173Z,3.08
2022-09-15T02:42:28.787Z,2.67
2022-09-15T02:47:30.509Z,2.53
2022-09-15T02:52:32.159Z,2.67
2022-09-15T02:57:33.868Z,2.80
2022-09-15T03:02:36.069Z,3.00
2022-09-15T03:07:38.511Z,2.40
2022-09-15T03:12:46.032Z,2.45
2022-09-15T03:17:49.169Z,2.90
2022-09-15T03:22:50.907Z,3.10
2022-09-15T03:27:52.553Z,2.55
2022-09-15T03:32:54.290Z,2.50
2022-09-15T03:37:55.963Z,2.60
2022-09-15T03:42:57.624Z,2.58
2022-09-15T03:47:59.611Z,2.80
2022-09-15T03:53:02.048Z,2.92
2022-09-15T03:58:03.993Z,2.70
2022-09-15T04:03:06.735Z,3.00
2022-09-15T04:13:13.992Z,2.28
2022-09-15T04:18:15.635Z,2.13
2022-09-15T04:23:17.223Z,2.30
2022-09-15T04:28:18.883Z,2.13
2022-09-15T04:33:20.563Z,2.28
2022-09-15T04:38:22.171Z,2.75
2022-09-15T04:43:23.865Z,2.30
2022-09-15T04:48:26.216Z,2.20
2022-09-15T04:53:28.130Z,2.22
2022-09-15T04:58:29.706Z,2.22
2022-09-15T05:03:31.351Z,2.20
2022-09-15T05:08:33.430Z,2.20
2022-09-15T05:13:35.582Z,2.05
2022-09-15T05:18:37.843Z,2.20
2022-09-15T05:23:39.879Z,2.03
2022-09-15T05:28:42.215Z,2.05
2022-09-15T05:33:45.095Z,1.80
2022-09-15T05:38:47.090Z,1.70
2022-09-15T05:43:50.742Z,2.20
2022-09-15T05:48:54.182Z,1.98
2022-09-15T05:53:56.118Z,1.75
2022-09-15T05:58:57.816Z,1.57
2022-09-15T06:03:59.531Z,1.60
2022-09-15T06:09:01.787Z,1.40
2022-09-15T06:14:04.102Z,1.70
2022-09-15T06:19:06.083Z,1.80
2022-09-15T06:24:07.867Z,1.70
2022-09-15T06:29:11.889Z,1.60
2022-09-15T06:34:13.609Z,1.80
2022-09-15T06:39:15.317Z,1.60
2022-09-15T06:44:17.505Z,1.57
2022-09-15T06:49:19.985Z,1.30
2022-09-15T06:54:21.993Z,1.40
2022-09-15T06:59:24.594Z,1.35
2022-09-15T07:04:26.342Z,1.55
2022-09-15T07:09:28.000Z,1.63
2022-09-15T07:14:29.945Z,1.55
2022-09-15T07:19:31.851Z,1.30
2022-09-15T07:24:33.516Z,1.52
2022-09-15T07:29:37.808Z,1.33
2022-09-15T07:34:39.613Z,1.38
2022-09-15T07:39:41.509Z,1.30
2022-09-15T07:44:43.097Z,1.50
2022-09-15T07:49:45.648Z,1.10
2022-09-15T07:54:47.410Z,1.50
2022-09-15T07:59:49.030Z,1.20
2022-09-15T08:04:50.688Z,1.50
2022-09-15T08:09:52.574Z,1.40
2022-09-15T08:14:54.302Z,1.20
2022-09-15T08:19:56.261Z,1.40
2022-09-15T08:24:58.071Z,1.13
2022-09-15T08:29:59.859Z,1.37
2022-09-15T08:35:01.842Z,1.10
2022-09-15T08:40:04.025Z,1.13
2022-09-15T08:45:14.803Z,1.50
2022-09-15T08:50:29.817Z,1.60
2022-09-15T08:55:43.656Z,1.50
2022-09-15T09:00:48.738Z,1.38
2022-09-15T09:06:03.593Z,1.40
2022-09-15T09:11:21.985Z,1.40
2022-09-15T09:16:41.881Z,1.05
2022-09-15T09:21:52.875Z,1.20
2022-09-15T09:26:55.751Z,1.20
2022-09-15T09:37:08.947Z,1.15
2022-09-15T09:42:15.727Z,1.30
2022-09-15T09:47:17.837Z,1.30
2022-09-15T09:52:37.344Z,1.20
2022-09-15T09:57:40.853Z,1.00
2022-09-15T10:02:48.486Z,1.00
2022-09-15T10:07:50.492Z,1.30
2022-09-15T10:12:56.371Z,1.30
2022-09-15T10:17:58.386Z,1.13
2022-09-15T10:23:24.182Z,1.30
2022-09-15T10:28:27.472Z,1.38
2022-09-15T10:33:38.193Z,1.60
2022-09-15T10:38:44.559Z,1.50
2022-09-15T10:44:05.377Z,1.40
2022-09-15T10:49:17.870Z,1.30
2022-09-15T11:00:03.021Z,1.80
2022-09-15T11:05:24.474Z,1.50
2022-09-15T11:10:41.038Z,1.48
2022-09-15T11:15:55.436Z,0.70
2022-09-15T11:21:31.110Z,0.80
2022-09-15T11:27:10.353Z,0.90
2022-09-15T11:32:19.698Z,0.82
2022-09-15T11:37:26.525Z,1.00
2022-09-15T11:42:51.300Z,1.00
2022-09-15T11:48:01.453Z,0.98
2022-09-15T11:53:27.788Z,1.20
2022-09-15T11:59:01.506Z,1.02
2022-09-15T12:04:10.350Z,1.13
2022-09-15T12:09:14.685Z,1.20
2022-09-15T12:14:29.033Z,1.00
2022-09-15T12:19:42.154Z,1.10
2022-09-15T12:25:01.309Z,2.47
2022-09-15T12:30:04.954Z,0.90
2022-09-15T12:35:18.904Z,1.08
2022-09-15T12:40:29.838Z,1.27
2022-09-15T12:45:36.199Z,1.48
2022-09-15T12:50:41.083Z,1.40
2022-09-15T12:55:55.841Z,1.30
2022-09-15T13:01:19.691Z,2.22
2022-09-15T13:06:30.631Z,1.70
2022-09-15T13:11:38.518Z,1.52
2022-09-15T13:16:40.498Z,1.55
2022-09-15T13:22:06.306Z,1.90
2022-09-15T13:27:08.892Z,1.60
2022-09-15T13:32:26.967Z,1.60
2022-09-15T13:38:15.132Z,1.80
2022-09-15T13:43:44.338Z,1.20
2022-09-15T13:49:07.477Z,1.90
2022-09-15T13:54:18.988Z,1.30
2022-09-15T13:59:28.433Z,1.27
2022-09-15T14:04:31.664Z,1.30
2022-09-15T14:09:41.418Z,1.65
2022-09-15T14:14:50.291Z,1.50
2022-09-15T14:19:54.974Z,1.48
2022-09-15T14:24:58.517Z,1.55
2022-09-15T14:30:06.833Z,1.10
2022-09-15T14:35:17.312Z,0.90
2022-09-15T14:40:30.126Z,1.10
2022-09-15T14:51:21.397Z,1.40
2022-09-15T14:56:26.280Z,1.50
2022-09-15T15:01:35.206Z,1.70
2022-09-15T15:06:45.087Z,1.95
2022-09-15T15:11:54.954Z,1.70
2022-09-15T15:17:00.070Z,1.50
2022-09-15T15:22:16.474Z,1.67
2022-09-15T15:27:25.722Z,1.40
2022-09-15T15:32:27.955Z,1.67
2022-09-15T15:37:33.431Z,1.70
2022-09-15T15:42:35.340Z,1.63
2022-09-15T15:47:37.103Z,1.70
2022-09-15T15:52:38.943Z,2.40
2022-09-15T15:57:41.016Z,2.30
2022-09-15T16:02:42.677Z,2.70
2022-09-15T16:07:47.339Z,2.47
2022-09-15T16:12:49.437Z,2.47
2022-09-15T16:17:51.140Z,2.78
2022-09-15T16:22:52.818Z,2.40
2022-09-15T16:27:54.860Z,2.75
2022-09-15T16:32:57.349Z,2.90
2022-09-15T16:37:59.106Z,3.22
2022-09-15T16:43:03.657Z,2.90
2022-09-15T16:48:05.464Z,3.20
2022-09-15T16:53:14.235Z,3.25
2022-09-15T16:58:17.331Z,3.05
2022-09-15T17:03:21.496Z,3.90
2022-09-15T17:08:28.686Z,3.63
2022-09-15T17:13:32.731Z,3.47
2022-09-15T17:18:34.443Z,3.58
2022-09-15T17:23:39.176Z,4.05
2022-09-15T17:28:42.174Z,5.05
2022-09-15T17:33:44.691Z,5.50
2022-09-15T17:38:48.689Z,4.55
2022-09-15T17:43:50.817Z,4.90
2022-09-15T17:48:52.543Z,4.80
2022-09-15T17:53:54.948Z,5.03
2022-09-15T17:58:56.636Z,5.80
2022-09-15T18:03:58.573Z,5.63
2022-09-15T18:09:00.388Z,5.70
2022-09-15T18:14:02.054Z,6.80
2022-09-15T18:19:03.692Z,6.35
2022-09-15T18:24:05.537Z,6.97
2022-09-15T18:29:07.243Z,6.93
2022-09-15T18:34:10.315Z,6.53
2022-09-15T18:39:12.004Z,6.78
2022-09-15T18:44:13.740Z,7.20
2022-09-15T18:49:15.502Z,6.32
2022-09-15T18:54:17.547Z,6.25
2022-09-15T18:59:22.415Z,5.63
2022-09-15T19:04:28.413Z,6.70
2022-09-15T19:09:32.851Z,6.70
2022-09-15T19:14:34.558Z,6.53
2022-09-15T19:24:38.830Z,6.38
2022-09-15T19:29:40.641Z,6.60
2022-09-15T19:34:42.692Z,6.50
2022-09-15T19:39:44.591Z,6.43
2022-09-15T19:44:47.771Z,6.47
2022-09-15T19:49:51.385Z,6.13
2022-09-15T19:54:53.350Z,6.38
2022-09-15T19:59:55.154Z,6.47
2022-09-15T20:04:57.096Z,6.22
2022-09-15T20:09:58.869Z,5.90
2022-09-15T20:15:00.548Z,6.10
2022-09-15T20:20:02.708Z,5.35
2022-09-15T20:25:04.755Z,6.68
2022-09-15T20:30:07.187Z,5.70
2022-09-15T20:35:08.915Z,6.32
2022-09-15T20:40:10.643Z,7.05
2022-09-15T20:45:12.386Z,6.63
2022-09-15T20:50:14.251Z,7.20
2022-09-15T20:55:16.007Z,7.57
2022-09-15T21:00:18.682Z,5.72
2022-09-15T21:05:20.345Z,7.00
2022-09-15T21:10:24.121Z,7.40
2022-09-15T21:15:27.489Z,8.13
2022-09-15T21:20:29.618Z,7.03
2022-09-15T21:25:31.496Z,5.55
2022-09-15T21:30:33.130Z,7.40
2022-09-15T21:35:34.943Z,8.07
2022-09-15T21:40:36.955Z,8.48
2022-09-15T21:45:38.583Z,8.18
2022-09-15T21:50:53.479Z,6.63
2022-09-15T21:55:56.534Z,10.02
2022-09-15T22:00:58.202Z,8.10
2022-09-15T22:05:59.888Z,6.68
2022-09-15T22:11:01.643Z,11.77
2022-09-15T22:16:06.004Z,9.25
2022-09-15T22:21:25.937Z,7.15
2022-09-15T22:26:29.762Z,8.80
2022-09-15T22:31:31.659Z,6.95
2022-09-15T22:36:33.884Z,7.10
2022-09-15T22:41:38.067Z,7.38
2022-09-15T22:46:39.729Z,9.07
2022-09-15T22:51:41.378Z,8.10
2022-09-15T22:56:43.036Z,11.13
2022-09-15T23:01:44.988Z,9.15
2022-09-15T23:06:48.909Z,9.03
2022-09-15T23:11:50.550Z,7.68
2022-09-15T23:16:52.165Z,8.48
2022-09-15T23:21:53.842Z,7.53
2022-09-15T23:26:55.590Z,4.80
2022-09-15T23:31:57.257Z,8.07
2022-09-15T23:36:59.019Z,8.30
2022-09-15T23:42:01.299Z,7.25
2022-09-15T23:47:03.111Z,9.30
2022-09-15T23:52:04.829Z,9.18
2022-09-15T23:57:07.790Z,7.65
